Fergus Falls, MN

4:58 AM CDT on April 24, 2017 (GMT -0500)
Fergus Falls Municipal-Mickelson

Weather History for KFFM - September, 2013

Change the Weather History Date:

Monday, September 16, 2013

  Actual Average Record
Temperature  
Mean Temperature 55 °F -  
Max Temperature 66 °F 68 °F 89 °F (1948)
Min Temperature 44 °F 46 °F 34 °F (1959)
Degree Days  
Heating Degree Days 10    
Growing Degree Days 5 (Base 50)    
Moisture  
Dew Point 42 °F    
Average Humidity 66    
Maximum Humidity 93    
Minimum Humidity 24    
Precipitation  
Precipitation 0.00 in - - ()
Sea Level Pressure  
Sea Level Pressure 30.29 in    
Wind  
Wind Speed 7 mph (SSE)    
Max Wind Speed 16 mph    
Max Gust Speed 21 mph    
Visibility 10 miles    
Events      
Averages and records for this station are not official NWS values.
T = Trace of Precipitation, MM = Missing Value Source: NWS Daily Summary

Daily Weather History Graph

Daily Weather History Graph

Search for Another Location

Airport or City:

Trip Planner

Search our weather history database for the weather conditions in past years. The results will help you decide how hot, cold, wet, or windy it might be!

Date:

Astronomy

Sep. 16, 2013 Rise Set
Actual Time 7:04 AM CDT 7:33 PM CDT
Civil Twilight 6:34 AM CDT 8:03 PM CDT
Nautical Twilight 5:58 AM CDT 8:39 PM CDT
Astronomical Twilight 5:21 AM CDT 9:16 PM CDT
Moon 5:49 PM CDT (9/16) 3:43 AM CDT (9/16)
Length of Visible Light 13h 29m
Length of Day
12h 29m
Waxing Gibbous, 90% of the Moon is Illuminated
Sep 16
Waxing Gibbous
Sep 19
Full
Sep 26
Last Quarter
Oct 4
New
Oct 11
First Quarter

Hourly Weather History & Observations

Time (CDT) Temp. Windchill Dew Point Humidity Pressure Visibility Wind Dir Wind Speed Gust Speed Precip Events Conditions
12:13 AM 51.8 °F - 42.8 °F 71% 30.33 in 10.0 mi ESE 5.8 mph - N/A   Clear
12:33 AM 51.8 °F - 42.8 °F 71% 30.33 in 10.0 mi ESE 4.6 mph - N/A   Clear
12:53 AM 50.0 °F - 42.8 °F 76% 30.34 in 10.0 mi ESE 5.8 mph - N/A   Clear
1:13 AM 50.0 °F - 42.8 °F 76% 30.34 in 10.0 mi ESE 5.8 mph - N/A   Clear
1:33 AM 50.0 °F - 42.8 °F 76% 30.34 in 10.0 mi ESE 5.8 mph - N/A   Clear
1:53 AM 48.2 °F - 42.8 °F 82% 30.34 in 10.0 mi ESE 4.6 mph - N/A   Clear
2:13 AM 48.2 °F - 42.8 °F 82% 30.34 in 10.0 mi ESE 3.5 mph - N/A   Clear
2:33 AM 48.2 °F - 41.0 °F 76% 30.35 in 10.0 mi ESE 4.6 mph - N/A   Clear
2:53 AM 44.6 °F - 39.2 °F 81% 30.34 in 10.0 mi Calm Calm - N/A   Clear
3:13 AM 46.4 °F 45.2 °F 42.8 °F 87% 30.35 in 10.0 mi SE 3.5 mph - N/A   Clear
3:33 AM 46.4 °F 43.5 °F 42.8 °F 87% 30.35 in 10.0 mi SE 5.8 mph - N/A   Clear
3:53 AM 44.6 °F - 42.8 °F 93% 30.35 in 10.0 mi Calm Calm - N/A   Clear
4:13 AM 44.6 °F - 42.8 °F 93% 30.35 in 10.0 mi Calm Calm - N/A   Clear
4:33 AM 44.6 °F - 42.8 °F 93% 30.36 in 10.0 mi Calm Calm - N/A   Clear
4:53 AM 46.4 °F - 44.6 °F 93% 30.36 in 10.0 mi Calm Calm - N/A   Clear
5:13 AM 46.4 °F - 44.6 °F 93% 30.36 in 10.0 mi Calm Calm - N/A   Clear
5:33 AM 44.6 °F - 42.8 °F 93% 30.36 in 10.0 mi Calm Calm - N/A   Clear
5:53 AM 44.6 °F - 42.8 °F 93% 30.36 in 10.0 mi Calm Calm - N/A   Clear
6:13 AM 44.6 °F 42.2 °F 42.8 °F 93% 30.36 in 10.0 mi ESE 4.6 mph - N/A   Clear
6:33 AM 46.4 °F 43.5 °F 44.6 °F 93% 30.36 in 10.0 mi SE 5.8 mph - N/A   Clear
6:53 AM 44.6 °F 40.7 °F 42.8 °F 93% 30.36 in 10.0 mi SSE 6.9 mph - N/A   Clear
7:13 AM 46.4 °F 42.9 °F 42.8 °F 87% 30.36 in 10.0 mi SSE 6.9 mph - N/A   Clear
7:33 AM 46.4 °F 42.4 °F 44.6 °F 93% 30.37 in 10.0 mi SSE 8.1 mph - N/A   Clear
7:53 AM 46.4 °F 43.5 °F 44.6 °F 93% 30.37 in 10.0 mi SSE 5.8 mph - N/A   Clear
8:13 AM 48.2 °F - 46.4 °F 93% 30.37 in 10.0 mi South 6.9 mph - N/A   Clear
8:33 AM 48.2 °F - 46.4 °F 93% 30.37 in 10.0 mi South 10.4 mph - N/A   Clear
8:53 AM 51.8 °F - 46.4 °F 82% 30.37 in 10.0 mi South 10.4 mph - N/A   Clear
9:13 AM 51.8 °F - 46.4 °F 82% 30.37 in 10.0 mi South 11.5 mph - N/A   Clear
9:33 AM 53.6 °F - 46.4 °F 77% 30.37 in 10.0 mi South 11.5 mph - N/A   Scattered Clouds
9:53 AM 53.6 °F - 44.6 °F 72% 30.38 in 10.0 mi South 13.8 mph - N/A   Scattered Clouds
10:13 AM 55.4 °F - 42.8 °F 63% 30.37 in 10.0 mi South 16.1 mph - N/A   Clear
10:33 AM 55.4 °F - 44.6 °F 67% 30.37 in 10.0 mi SSE 12.7 mph - N/A   Clear
10:53 AM 57.2 °F - 44.6 °F 63% 30.36 in 10.0 mi South 12.7 mph - N/A   Clear
11:13 AM 57.2 °F - 44.6 °F 63% 30.35 in 10.0 mi South 11.5 mph - N/A   Clear
11:33 AM 59.0 °F - 44.6 °F 59% 30.35 in 10.0 mi South 12.7 mph - N/A   Clear
11:53 AM 59.0 °F - 44.6 °F 59% 30.35 in 10.0 mi South 15.0 mph 19.6 mph N/A   Clear
12:13 PM 59.0 °F - 44.6 °F 59% 30.35 in 10.0 mi SSE 12.7 mph - N/A   Clear
12:33 PM 60.8 °F - 44.6 °F 55% 30.35 in 10.0 mi South 12.7 mph - N/A   Clear
12:53 PM 60.8 °F - 44.6 °F 55% 30.34 in 10.0 mi South 11.5 mph 16.1 mph N/A   Clear
1:13 PM 62.6 °F - 42.8 °F 48% 30.33 in 10.0 mi South 11.5 mph - N/A   Clear
1:33 PM 62.6 °F - 42.8 °F 48% 30.32 in 10.0 mi SSE 13.8 mph 18.4 mph N/A   Clear
1:53 PM 62.6 °F - 42.8 °F 48% 30.31 in 10.0 mi SSE 10.4 mph 17.3 mph N/A   Clear
2:13 PM 62.6 °F - 41.0 °F 45% 30.31 in 10.0 mi SSE 13.8 mph - N/A   Clear
2:33 PM 64.4 °F - 41.0 °F 42% 30.29 in 10.0 mi South 10.4 mph - N/A   Clear
2:53 PM 64.4 °F - 37.4 °F 37% 30.28 in 10.0 mi South 12.7 mph - N/A   Clear
3:13 PM 64.4 °F - 39.2 °F 40% 30.27 in 10.0 mi South 12.7 mph 16.1 mph N/A   Clear
3:33 PM 64.4 °F - 37.4 °F 37% 30.26 in 10.0 mi SSE 9.2 mph 16.1 mph N/A   Clear
3:53 PM 66.2 °F - 37.4 °F 35% 30.24 in 10.0 mi SSE 13.8 mph 17.3 mph N/A   Clear
4:13 PM 66.2 °F - 37.4 °F 35% 30.23 in 10.0 mi SE 11.5 mph 17.3 mph N/A   Clear
4:33 PM 66.2 °F - 32.0 °F 28% 30.22 in 10.0 mi SE 12.7 mph 18.4 mph N/A   Clear
4:53 PM 66.2 °F - 28.4 °F 24% 30.22 in 10.0 mi SE 15.0 mph 18.4 mph N/A   Clear
5:13 PM 66.2 °F - 28.4 °F 24% 30.21 in 10.0 mi SE 13.8 mph - N/A   Clear
5:33 PM 64.4 °F - 30.2 °F 28% 30.21 in 10.0 mi SSE 15.0 mph 20.7 mph N/A   Clear
5:53 PM 64.4 °F - 30.2 °F 28% 30.20 in 10.0 mi SSE 13.8 mph 18.4 mph N/A   Clear
6:13 PM 64.4 °F - 32.0 °F 30% 30.20 in 10.0 mi SE 13.8 mph - N/A   Clear
6:33 PM 64.4 °F - 35.6 °F 34% 30.19 in 10.0 mi SSE 11.5 mph - N/A   Clear
6:53 PM 62.6 °F - 39.2 °F 42% 30.19 in 10.0 mi SSE 9.2 mph - N/A   Clear
7:13 PM 60.8 °F - 39.2 °F 45% 30.18 in 10.0 mi SSE 8.1 mph - N/A   Clear
7:33 PM 57.2 °F - 42.8 °F 59% 30.17 in 10.0 mi SSE 6.9 mph - N/A   Clear
7:53 PM 57.2 °F - 42.8 °F 59% 30.17 in 10.0 mi SSE 8.1 mph - N/A   Clear
8:13 PM 57.2 °F - 42.8 °F 59% 30.17 in 10.0 mi SE 6.9 mph - N/A   Clear
8:33 PM 55.4 °F - 42.8 °F 63% 30.17 in 10.0 mi SE 6.9 mph - N/A   Clear
8:53 PM 55.4 °F - 44.6 °F 67% 30.17 in 10.0 mi SE 8.1 mph - N/A   Clear
9:13 PM 55.4 °F - 44.6 °F 67% 30.17 in 10.0 mi SE 8.1 mph - N/A   Clear
9:33 PM 55.4 °F - 44.6 °F 67% 30.17 in 10.0 mi SE 11.5 mph - N/A   Clear
9:53 PM 57.2 °F - 44.6 °F 63% 30.16 in 10.0 mi SSE 12.7 mph 16.1 mph N/A   Clear
10:13 PM 57.2 °F - 44.6 °F 63% 30.16 in 10.0 mi SSE 13.8 mph 18.4 mph N/A   Clear
10:33 PM 57.2 °F - 44.6 °F 63% 30.15 in 10.0 mi SSE 13.8 mph - N/A   Clear
10:53 PM 55.4 °F - 44.6 °F 67% 30.15 in 10.0 mi SSE 13.8 mph - N/A   Clear
11:13 PM 55.4 °F - 46.4 °F 72% 30.15 in 10.0 mi SSE 12.7 mph - N/A   Clear
11:33 PM 55.4 °F - 46.4 °F 72% 30.15 in 10.0 mi SSE 16.1 mph 19.6 mph N/A   Clear
11:53 PM 55.4 °F - 46.4 °F 72% 30.15 in 10.0 mi SSE 16.1 mph - N/A   Clear